Louisville, Nebraska
Current Conditions -  °F | °C
As of 12:35 AM on Thursday 23 Oct 2014 (Local Time) from KPMV Reporting Station
Haze Haze  
Wind Chill: 61°   Ceiling: 1500
Heat Index: 61°   Visibility: 2.5mi
Dew Point: 59°   Wind: 6mph
Humidity: 94%   Direction: 140°SE
Pressure: 30.05"   Gusts: NA
Location:  41°N, 96.16°W
Report Text: KPMV 230535Z AUTO 14005KT 2 1/2SM BR SCT002 BKN015 BKN080 16/15 A3005 RMK AO2 T01610151
Loading
Personal Weather Stations






























Interactive Weather Map
Tropical Storm Tracking
New forecast layout! Learn more

10-Day Weather Forecast

Advertisements
Track Severe Weather on mobile